sensor_id;sensor_type;location;lat;lon;timestamp;temperature;humidity
53776;DHT22;44276;49.534;6.378;2022-09-23T00:01:29;6.10;99.90
53776;DHT22;44276;49.534;6.378;2022-09-23T00:03:59;6.00;99.90
53776;DHT22;44276;49.534;6.378;2022-09-23T00:06:27;6.00;99.90
53776;DHT22;44276;49.534;6.378;2022-09-23T00:08:55;6.10;99.90
53776;DHT22;44276;49.534;6.378;2022-09-23T00:11:26;6.00;99.90
53776;DHT22;44276;49.534;6.378;2022-09-23T00:13:56;6.00;99.90
53776;DHT22;44276;49.534;6.378;2022-09-23T00:16:29;5.90;99.90
53776;DHT22;44276;49.534;6.378;2022-09-23T00:19:00;5.90;99.90
53776;DHT22;44276;49.534;6.378;2022-09-23T00:21:28;5.90;99.90
53776;DHT22;44276;49.534;6.378;2022-09-23T00:23:57;5.70;99.90
53776;DHT22;44276;49.534;6.378;2022-09-23T00:26:25;5.60;99.90
53776;DHT22;44276;49.534;6.378;2022-09-23T00:28:54;5.60;99.90
53776;DHT22;44276;49.534;6.378;2022-09-23T00:31:23;5.50;99.90
53776;DHT22;44276;49.534;6.378;2022-09-23T00:33:56;5.40;99.90
53776;DHT22;44276;49.534;6.378;2022-09-23T00:36:26;5.30;99.90
53776;DHT22;44276;49.534;6.378;2022-09-23T00:38:56;5.20;99.90
53776;DHT22;44276;49.534;6.378;2022-09-23T00:41:25;5.20;99.90
53776;DHT22;44276;49.534;6.378;2022-09-23T00:43:55;5.20;99.90
53776;DHT22;44276;49.534;6.378;2022-09-23T00:46:29;5.20;99.90
53776;DHT22;44276;49.534;6.378;2022-09-23T00:49:06;5.20;99.90
53776;DHT22;44276;49.534;6.378;2022-09-23T00:51:40;5.20;99.90
53776;DHT22;44276;49.534;6.378;2022-09-23T00:54:12;5.10;99.90
53776;DHT22;44276;49.534;6.378;2022-09-23T00:56:41;4.80;99.90
53776;DHT22;44276;49.534;6.378;2022-09-23T00:59:09;4.80;99.90
53776;DHT22;44276;49.534;6.378;2022-09-23T01:01:38;4.80;99.90
53776;DHT22;44276;49.534;6.378;2022-09-23T01:04:08;4.90;99.90
53776;DHT22;44276;49.534;6.378;2022-09-23T01:06:36;4.90;99.90
53776;DHT22;44276;49.534;6.378;2022-09-23T01:09:04;4.90;99.90
53776;DHT22;44276;49.534;6.378;2022-09-23T01:11:37;4.90;99.90
53776;DHT22;44276;49.534;6.378;2022-09-23T01:14:27;5.00;99.90
53776;DHT22;44276;49.534;6.378;2022-09-23T01:17:07;5.00;99.90
53776;DHT22;44276;49.534;6.378;2022-09-23T01:20:02;5.00;99.90
53776;DHT22;44276;49.534;6.378;2022-09-23T01:22:44;4.90;99.90
53776;DHT22;44276;49.534;6.378;2022-09-23T01:25:26;4.90;99.90
53776;DHT22;44276;49.534;6.378;2022-09-23T01:28:22;4.80;99.90
53776;DHT22;44276;49.534;6.378;2022-09-23T01:31:12;4.70;99.90
53776;DHT22;44276;49.534;6.378;2022-09-23T01:33:53;4.70;99.90
53776;DHT22;44276;49.534;6.378;2022-09-23T01:36:28;4.70;99.90
53776;DHT22;44276;49.534;6.378;2022-09-23T01:39:09;4.80;99.90
53776;DHT22;44276;49.534;6.378;2022-09-23T01:41:47;4.90;99.90
53776;DHT22;44276;49.534;6.378;2022-09-23T01:44:24;4.80;99.90
53776;DHT22;44276;49.534;6.378;2022-09-23T01:47:02;4.70;99.90
53776;DHT22;44276;49.534;6.378;2022-09-23T01:49:43;4.80;99.90
53776;DHT22;44276;49.534;6.378;2022-09-23T01:52:23;4.70;99.90
53776;DHT22;44276;49.534;6.378;2022-09-23T01:55:03;4.60;99.90
53776;DHT22;44276;49.534;6.378;2022-09-23T01:57:39;4.60;99.90
53776;DHT22;44276;49.534;6.378;2022-09-23T02:00:14;4.60;99.90
53776;DHT22;44276;49.534;6.378;2022-09-23T02:02:49;4.70;99.90
53776;DHT22;44276;49.534;6.378;2022-09-23T02:05:24;4.70;99.90
53776;DHT22;44276;49.534;6.378;2022-09-23T02:07:59;4.70;99.90
53776;DHT22;44276;49.534;6.378;2022-09-23T02:10:34;4.60;99.90
53776;DHT22;44276;49.534;6.378;2022-09-23T02:13:13;4.50;99.90
53776;DHT22;44276;49.534;6.378;2022-09-23T02:15:49;4.50;99.90
53776;DHT22;44276;49.534;6.378;2022-09-23T02:18:23;4.50;99.90
53776;DHT22;44276;49.534;6.378;2022-09-23T02:20:57;4.60;99.90
53776;DHT22;44276;49.534;6.378;2022-09-23T02:23:34;4.50;99.90
53776;DHT22;44276;49.534;6.378;2022-09-23T02:26:07;4.40;99.90
53776;DHT22;44276;49.534;6.378;2022-09-23T02:28:49;4.40;99.90
53776;DHT22;44276;49.534;6.378;2022-09-23T02:31:31;4.30;99.90
53776;DHT22;44276;49.534;6.378;2022-09-23T02:34:15;4.30;99.90
53776;DHT22;44276;49.534;6.378;2022-09-23T02:36:58;4.20;99.90
53776;DHT22;44276;49.534;6.378;2022-09-23T02:39:41;4.10;99.90
53776;DHT22;44276;49.534;6.378;2022-09-23T02:42:22;4.20;99.90
53776;DHT22;44276;49.534;6.378;2022-09-23T02:44:55;4.30;99.90
53776;DHT22;44276;49.534;6.378;2022-09-23T02:47:28;4.20;99.90
53776;DHT22;44276;49.534;6.378;2022-09-23T02:50:02;4.10;99.90
53776;DHT22;44276;49.534;6.378;2022-09-23T02:52:31;4.00;99.90
53776;DHT22;44276;49.534;6.378;2022-09-23T02:54:59;4.00;99.90
53776;DHT22;44276;49.534;6.378;2022-09-23T02:57:28;4.00;99.90
53776;DHT22;44276;49.534;6.378;2022-09-23T02:59:56;4.10;99.90
53776;DHT22;44276;49.534;6.378;2022-09-23T03:02:40;4.10;99.90
53776;DHT22;44276;49.534;6.378;2022-09-23T03:05:26;4.10;99.90
53776;DHT22;44276;49.534;6.378;2022-09-23T03:08:09;4.20;99.90
53776;DHT22;44276;49.534;6.378;2022-09-23T03:10:57;4.20;99.90
53776;DHT22;44276;49.534;6.378;2022-09-23T03:13:39;4.10;99.90
53776;DHT22;44276;49.534;6.378;2022-09-23T03:16:27;4.10;99.90
53776;DHT22;44276;49.534;6.378;2022-09-23T03:19:09;3.90;99.90
53776;DHT22;44276;49.534;6.378;2022-09-23T03:21:55;4.00;99.90
53776;DHT22;44276;49.534;6.378;2022-09-23T03:24:30;3.90;99.90
53776;DHT22;44276;49.534;6.378;2022-09-23T03:27:03;3.90;99.90
53776;DHT22;44276;49.534;6.378;2022-09-23T03:29:40;3.90;99.90
53776;DHT22;44276;49.534;6.378;2022-09-23T03:32:12;3.90;99.90
53776;DHT22;44276;49.534;6.378;2022-09-23T03:34:45;3.90;99.90
53776;DHT22;44276;49.534;6.378;2022-09-23T03:37:20;3.90;99.90
53776;DHT22;44276;49.534;6.378;2022-09-23T03:39:56;3.90;99.90
53776;DHT22;44276;49.534;6.378;2022-09-23T03:42:31;3.80;99.90
53776;DHT22;44276;49.534;6.378;2022-09-23T03:45:03;3.80;99.90
53776;DHT22;44276;49.534;6.378;2022-09-23T03:47:35;3.70;99.90
53776;DHT22;44276;49.534;6.378;2022-09-23T03:50:05;3.70;99.90
53776;DHT22;44276;49.534;6.378;2022-09-23T03:52:35;3.60;99.90
53776;DHT22;44276;49.534;6.378;2022-09-23T03:55:06;3.60;99.90
53776;DHT22;44276;49.534;6.378;2022-09-23T03:57:35;3.70;99.90
53776;DHT22;44276;49.534;6.378;2022-09-23T04:00:04;3.70;99.90
53776;DHT22;44276;49.534;6.378;2022-09-23T04:02:33;3.70;99.90
53776;DHT22;44276;49.534;6.378;2022-09-23T04:05:02;3.70;99.90
53776;DHT22;44276;49.534;6.378;2022-09-23T04:07:30;3.70;99.90
53776;DHT22;44276;49.534;6.378;2022-09-23T04:10:00;3.70;99.90
53776;DHT22;44276;49.534;6.378;2022-09-23T04:12:29;3.50;99.90
53776;DHT22;44276;49.534;6.378;2022-09-23T04:14:57;3.50;99.90
53776;DHT22;44276;49.534;6.378;2022-09-23T04:17:25;3.60;99.90
53776;DHT22;44276;49.534;6.378;2022-09-23T04:19:53;3.60;99.90
53776;DHT22;44276;49.534;6.378;2022-09-23T04:22:21;3.70;99.90
53776;DHT22;44276;49.534;6.378;2022-09-23T04:24:49;3.70;99.90
53776;DHT22;44276;49.534;6.378;2022-09-23T04:27:19;3.70;99.90
53776;DHT22;44276;49.534;6.378;2022-09-23T04:29:47;3.50;99.90
53776;DHT22;44276;49.534;6.378;2022-09-23T04:32:15;3.50;99.90
53776;DHT22;44276;49.534;6.378;2022-09-23T04:34:43;3.50;99.90
53776;DHT22;44276;49.534;6.378;2022-09-23T04:37:12;3.50;99.90
53776;DHT22;44276;49.534;6.378;2022-09-23T04:39:40;3.50;99.90
53776;DHT22;44276;49.534;6.378;2022-09-23T04:42:08;3.50;99.90
53776;DHT22;44276;49.534;6.378;2022-09-23T04:44:38;3.50;99.90
53776;DHT22;44276;49.534;6.378;2022-09-23T04:47:06;3.50;99.90
53776;DHT22;44276;49.534;6.378;2022-09-23T04:49:34;3.50;99.90
53776;DHT22;44276;49.534;6.378;2022-09-23T04:52:02;3.40;99.90
53776;DHT22;44276;49.534;6.378;2022-09-23T04:54:31;3.40;99.90
53776;DHT22;44276;49.534;6.378;2022-09-23T04:56:59;3.20;99.90
53776;DHT22;44276;49.534;6.378;2022-09-23T04:59:27;3.20;99.90
53776;DHT22;44276;49.534;6.378;2022-09-23T05:01:57;3.20;99.90
53776;DHT22;44276;49.534;6.378;2022-09-23T05:04:25;3.30;99.90
53776;DHT22;44276;49.534;6.378;2022-09-23T05:06:53;3.40;99.90
53776;DHT22;44276;49.534;6.378;2022-09-23T05:09:26;3.40;99.90
53776;DHT22;44276;49.534;6.378;2022-09-23T05:11:54;3.40;99.90
53776;DHT22;44276;49.534;6.378;2022-09-23T05:14:22;3.20;99.90
53776;DHT22;44276;49.534;6.378;2022-09-23T05:16:50;3.10;99.90
53776;DHT22;44276;49.534;6.378;2022-09-23T05:19:19;3.20;99.90
53776;DHT22;44276;49.534;6.378;2022-09-23T05:21:48;3.20;99.90
53776;DHT22;44276;49.534;6.378;2022-09-23T05:24:16;3.30;99.90
53776;DHT22;44276;49.534;6.378;2022-09-23T05:26:44;3.30;99.90
53776;DHT22;44276;49.534;6.378;2022-09-23T05:29:13;3.30;99.90
53776;DHT22;44276;49.534;6.378;2022-09-23T05:31:41;3.30;99.90
53776;DHT22;44276;49.534;6.378;2022-09-23T05:34:09;3.30;99.90
53776;DHT22;44276;49.534;6.378;2022-09-23T05:36:38;3.30;99.90
53776;DHT22;44276;49.534;6.378;2022-09-23T05:39:07;3.30;99.90
53776;DHT22;44276;49.534;6.378;2022-09-23T05:41:35;3.30;99.90
53776;DHT22;44276;49.534;6.378;2022-09-23T05:44:05;3.30;99.90
53776;DHT22;44276;49.534;6.378;2022-09-23T05:46:34;3.40;99.90
53776;DHT22;44276;49.534;6.378;2022-09-23T05:49:02;3.30;99.90
53776;DHT22;44276;49.534;6.378;2022-09-23T05:51:33;3.30;99.90
53776;DHT22;44276;49.534;6.378;2022-09-23T05:54:03;3.40;99.90
53776;DHT22;44276;49.534;6.378;2022-09-23T05:56:33;3.40;99.90
53776;DHT22;44276;49.534;6.378;2022-09-23T05:59:03;3.50;99.90
53776;DHT22;44276;49.534;6.378;2022-09-23T06:01:33;3.50;99.90
53776;DHT22;44276;49.534;6.378;2022-09-23T06:04:05;3.60;99.90
53776;DHT22;44276;49.534;6.378;2022-09-23T06:06:40;3.80;99.90
53776;DHT22;44276;49.534;6.378;2022-09-23T06:09:12;3.90;99.90
53776;DHT22;44276;49.534;6.378;2022-09-23T06:11:41;4.10;99.90
53776;DHT22;44276;49.534;6.378;2022-09-23T06:14:11;4.20;99.90
53776;DHT22;44276;49.534;6.378;2022-09-23T06:16:41;4.30;99.90
53776;DHT22;44276;49.534;6.378;2022-09-23T06:19:09;4.40;99.90
53776;DHT22;44276;49.534;6.378;2022-09-23T06:21:38;4.40;99.90
53776;DHT22;44276;49.534;6.378;2022-09-23T06:24:07;4.60;99.90
53776;DHT22;44276;49.534;6.378;2022-09-23T06:26:42;4.80;99.90
53776;DHT22;44276;49.534;6.378;2022-09-23T06:29:11;5.10;99.90
53776;DHT22;44276;49.534;6.378;2022-09-23T06:31:40;5.50;99.90
53776;DHT22;44276;49.534;6.378;2022-09-23T06:34:09;5.80;99.90
53776;DHT22;44276;49.534;6.378;2022-09-23T06:36:40;6.20;99.90
53776;DHT22;44276;49.534;6.378;2022-09-23T06:39:12;6.60;99.90
53776;DHT22;44276;49.534;6.378;2022-09-23T06:41:42;7.30;99.90
53776;DHT22;44276;49.534;6.378;2022-09-23T06:44:11;8.00;99.90
53776;DHT22;44276;49.534;6.378;2022-09-23T06:46:39;8.70;99.90
53776;DHT22;44276;49.534;6.378;2022-09-23T06:49:08;9.50;99.90
53776;DHT22;44276;49.534;6.378;2022-09-23T06:51:39;10.30;99.90
53776;DHT22;44276;49.534;6.378;2022-09-23T06:54:07;11.40;99.90
53776;DHT22;44276;49.534;6.378;2022-09-23T06:56:36;12.20;99.90
53776;DHT22;44276;49.534;6.378;2022-09-23T06:59:09;13.20;99.90
53776;DHT22;44276;49.534;6.378;2022-09-23T07:01:38;14.10;99.90
53776;DHT22;44276;49.534;6.378;2022-09-23T07:04:07;15.10;99.90
53776;DHT22;44276;49.534;6.378;2022-09-23T07:06:35;15.30;67.20
53776;DHT22;44276;49.534;6.378;2022-09-23T07:09:07;15.40;71.20
53776;DHT22;44276;49.534;6.378;2022-09-23T07:11:36;15.30;83.00
53776;DHT22;44276;49.534;6.378;2022-09-23T07:14:06;14.40;79.00
53776;DHT22;44276;49.534;6.378;2022-09-23T07:16:34;13.80;97.70
53776;DHT22;44276;49.534;6.378;2022-09-23T07:19:04;13.70;99.60
53776;DHT22;44276;49.534;6.378;2022-09-23T07:21:32;13.70;75.40
53776;DHT22;44276;49.534;6.378;2022-09-23T07:24:00;14.20;86.60
53776;DHT22;44276;49.534;6.378;2022-09-23T07:26:29;13.90;64.50
53776;DHT22;44276;49.534;6.378;2022-09-23T07:29:00;12.90;86.00
53776;DHT22;44276;49.534;6.378;2022-09-23T07:31:33;13.40;76.60
53776;DHT22;44276;49.534;6.378;2022-09-23T07:34:06;14.10;70.20
53776;DHT22;44276;49.534;6.378;2022-09-23T07:36:38;15.40;69.60
53776;DHT22;44276;49.534;6.378;2022-09-23T07:39:08;17.20;62.60
53776;DHT22;44276;49.534;6.378;2022-09-23T07:41:38;18.20;52.10
53776;DHT22;44276;49.534;6.378;2022-09-23T07:44:11;18.70;46.60
53776;DHT22;44276;49.534;6.378;2022-09-23T07:46:41;19.30;46.50
53776;DHT22;44276;49.534;6.378;2022-09-23T07:49:09;19.80;41.20
53776;DHT22;44276;49.534;6.378;2022-09-23T07:51:38;19.80;30.80
53776;DHT22;44276;49.534;6.378;2022-09-23T07:54:10;19.50;35.10
53776;DHT22;44276;49.534;6.378;2022-09-23T07:56:41;19.60;30.30
53776;DHT22;44276;49.534;6.378;2022-09-23T07:59:12;19.90;29.90
53776;DHT22;44276;49.534;6.378;2022-09-23T08:01:47;20.10;32.10
53776;DHT22;44276;49.534;6.378;2022-09-23T08:04:21;20.20;29.40
53776;DHT22;44276;49.534;6.378;2022-09-23T08:06:52;20.40;27.10
53776;DHT22;44276;49.534;6.378;2022-09-23T08:09:24;20.60;27.60
53776;DHT22;44276;49.534;6.378;2022-09-23T08:11:54;20.90;25.10
53776;DHT22;44276;49.534;6.378;2022-09-23T08:14:22;21.20;25.10
53776;DHT22;44276;49.534;6.378;2022-09-23T08:16:52;21.30;24.50
53776;DHT22;44276;49.534;6.378;2022-09-23T08:19:22;22.00;25.40
53776;DHT22;44276;49.534;6.378;2022-09-23T08:21:50;23.00;24.10
53776;DHT22;44276;49.534;6.378;2022-09-23T08:24:21;24.00;23.00
53776;DHT22;44276;49.534;6.378;2022-09-23T08:26:53;24.00;21.90
53776;DHT22;44276;49.534;6.378;2022-09-23T08:29:23;24.50;20.50
53776;DHT22;44276;49.534;6.378;2022-09-23T08:31:53;24.00;20.00
53776;DHT22;44276;49.534;6.378;2022-09-23T08:34:22;23.30;20.80
53776;DHT22;44276;49.534;6.378;2022-09-23T08:36:54;23.30;21.10
53776;DHT22;44276;49.534;6.378;2022-09-23T08:39:24;22.60;21.50
53776;DHT22;44276;49.534;6.378;2022-09-23T08:42:03;22.80;22.50
53776;DHT22;44276;49.534;6.378;2022-09-23T08:44:45;23.60;19.50
53776;DHT22;44276;49.534;6.378;2022-09-23T08:47:23;24.60;20.00
53776;DHT22;44276;49.534;6.378;2022-09-23T08:50:03;25.30;19.60
53776;DHT22;44276;49.534;6.378;2022-09-23T08:52:52;26.10;18.30
53776;DHT22;44276;49.534;6.378;2022-09-23T08:55:36;26.20;18.10
53776;DHT22;44276;49.534;6.378;2022-09-23T08:58:29;26.30;17.50
53776;DHT22;44276;49.534;6.378;2022-09-23T09:01:14;26.20;17.70
53776;DHT22;44276;49.534;6.378;2022-09-23T09:04:39;26.20;17.20
53776;DHT22;44276;49.534;6.378;2022-09-23T09:07:17;24.80;18.70
53776;DHT22;44276;49.534;6.378;2022-09-23T09:10:05;24.80;19.40
53776;DHT22;44276;49.534;6.378;2022-09-23T09:12:44;25.30;18.40
53776;DHT22;44276;49.534;6.378;2022-09-23T09:15:15;24.70;18.50
53776;DHT22;44276;49.534;6.378;2022-09-23T09:17:55;24.60;19.60
53776;DHT22;44276;49.534;6.378;2022-09-23T09:20:44;25.00;18.50
53776;DHT22;44276;49.534;6.378;2022-09-23T09:23:26;25.20;18.50
53776;DHT22;44276;49.534;6.378;2022-09-23T09:26:00;24.80;18.40
53776;DHT22;44276;49.534;6.378;2022-09-23T09:28:37;25.10;18.70
53776;DHT22;44276;49.534;6.378;2022-09-23T09:31:18;25.00;18.50
53776;DHT22;44276;49.534;6.378;2022-09-23T09:33:53;25.20;17.90
53776;DHT22;44276;49.534;6.378;2022-09-23T09:36:35;25.00;18.90
53776;DHT22;44276;49.534;6.378;2022-09-23T09:39:12;25.50;18.70
53776;DHT22;44276;49.534;6.378;2022-09-23T09:41:45;26.00;17.50
53776;DHT22;44276;49.534;6.378;2022-09-23T09:44:22;25.50;17.90
53776;DHT22;44276;49.534;6.378;2022-09-23T09:47:07;25.10;18.70
53776;DHT22;44276;49.534;6.378;2022-09-23T09:49:47;24.60;18.70
53776;DHT22;44276;49.534;6.378;2022-09-23T09:52:22;24.50;19.30
53776;DHT22;44276;49.534;6.378;2022-09-23T09:54:55;24.30;20.20
53776;DHT22;44276;49.534;6.378;2022-09-23T09:57:52;23.80;19.80
53776;DHT22;44276;49.534;6.378;2022-09-23T10:00:37;23.10;21.10
53776;DHT22;44276;49.534;6.378;2022-09-23T10:03:24;22.80;21.90
53776;DHT22;44276;49.534;6.378;2022-09-23T10:06:13;22.60;22.30
53776;DHT22;44276;49.534;6.378;2022-09-23T10:09:02;22.40;21.80
53776;DHT22;44276;49.534;6.378;2022-09-23T10:11:32;22.10;22.50
53776;DHT22;44276;49.534;6.378;2022-09-23T10:14:03;21.70;23.10
53776;DHT22;44276;49.534;6.378;2022-09-23T10:16:38;21.70;23.00
53776;DHT22;44276;49.534;6.378;2022-09-23T10:19:23;22.30;22.20
53776;DHT22;44276;49.534;6.378;2022-09-23T10:21:55;22.90;21.30
53776;DHT22;44276;49.534;6.378;2022-09-23T10:24:30;23.70;20.10
53776;DHT22;44276;49.534;6.378;2022-09-23T10:27:03;24.70;19.20
53776;DHT22;44276;49.534;6.378;2022-09-23T10:29:37;25.30;18.60
53776;DHT22;44276;49.534;6.378;2022-09-23T10:32:20;26.60;17.50
53776;DHT22;44276;49.534;6.378;2022-09-23T10:34:54;27.30;15.90
53776;DHT22;44276;49.534;6.378;2022-09-23T10:37:33;27.10;16.10
53776;DHT22;44276;49.534;6.378;2022-09-23T10:40:24;26.30;17.30
53776;DHT22;44276;49.534;6.378;2022-09-23T10:43:22;26.70;16.40
53776;DHT22;44276;49.534;6.378;2022-09-23T10:46:17;26.70;16.60
53776;DHT22;44276;49.534;6.378;2022-09-23T10:52:31;27.10;16.20
53776;DHT22;44276;49.534;6.378;2022-09-23T10:55:29;27.90;14.80
53776;DHT22;44276;49.534;6.378;2022-09-23T10:58:28;28.00;14.30
53776;DHT22;44276;49.534;6.378;2022-09-23T11:01:28;27.00;15.30
53776;DHT22;44276;49.534;6.378;2022-09-23T11:04:27;27.30;15.50
53776;DHT22;44276;49.534;6.378;2022-09-23T11:07:22;26.80;14.70
53776;DHT22;44276;49.534;6.378;2022-09-23T11:10:22;27.00;14.60
53776;DHT22;44276;49.534;6.378;2022-09-23T11:13:22;26.70;15.40
53776;DHT22;44276;49.534;6.378;2022-09-23T11:16:07;26.20;15.70
53776;DHT22;44276;49.534;6.378;2022-09-23T11:18:56;25.70;15.30
53776;DHT22;44276;49.534;6.378;2022-09-23T11:21:48;25.10;16.50
53776;DHT22;44276;49.534;6.378;2022-09-23T11:24:47;25.30;17.00
53776;DHT22;44276;49.534;6.378;2022-09-23T11:27:48;24.30;18.30
53776;DHT22;44276;49.534;6.378;2022-09-23T11:30:33;23.70;18.60
53776;DHT22;44276;49.534;6.378;2022-09-23T11:33:21;23.70;18.60
53776;DHT22;44276;49.534;6.378;2022-09-23T11:36:03;23.80;18.20
53776;DHT22;44276;49.534;6.378;2022-09-23T11:38:38;24.40;17.80
53776;DHT22;44276;49.534;6.378;2022-09-23T11:41:16;25.10;17.60
53776;DHT22;44276;49.534;6.378;2022-09-23T11:43:53;24.70;17.60
53776;DHT22;44276;49.534;6.378;2022-09-23T11:46:32;24.50;17.80
53776;DHT22;44276;49.534;6.378;2022-09-23T11:49:10;24.70;17.80
53776;DHT22;44276;49.534;6.378;2022-09-23T11:51:55;24.90;17.40
53776;DHT22;44276;49.534;6.378;2022-09-23T11:54:31;24.80;16.90
53776;DHT22;44276;49.534;6.378;2022-09-23T11:57:10;25.70;16.00
53776;DHT22;44276;49.534;6.378;2022-09-23T11:59:50;26.90;15.30
53776;DHT22;44276;49.534;6.378;2022-09-23T12:02:26;27.10;15.70
53776;DHT22;44276;49.534;6.378;2022-09-23T12:05:02;27.50;14.50
53776;DHT22;44276;49.534;6.378;2022-09-23T12:07:39;27.90;12.90
53776;DHT22;44276;49.534;6.378;2022-09-23T12:10:16;28.10;12.90
53776;DHT22;44276;49.534;6.378;2022-09-23T12:12:53;28.40;13.00
53776;DHT22;44276;49.534;6.378;2022-09-23T12:15:39;27.90;12.90
53776;DHT22;44276;49.534;6.378;2022-09-23T12:18:29;27.20;13.20
53776;DHT22;44276;49.534;6.378;2022-09-23T12:21:30;27.10;13.30
53776;DHT22;44276;49.534;6.378;2022-09-23T12:24:30;26.40;14.10
53776;DHT22;44276;49.534;6.378;2022-09-23T12:27:19;25.60;14.70
53776;DHT22;44276;49.534;6.378;2022-09-23T12:29:58;24.50;14.90
53776;DHT22;44276;49.534;6.378;2022-09-23T12:32:31;25.20;14.90
53776;DHT22;44276;49.534;6.378;2022-09-23T12:35:00;25.80;14.30
53776;DHT22;44276;49.534;6.378;2022-09-23T12:37:33;25.40;13.80
53776;DHT22;44276;49.534;6.378;2022-09-23T12:40:13;25.10;14.80
53776;DHT22;44276;49.534;6.378;2022-09-23T12:42:47;25.40;13.20
53776;DHT22;44276;49.534;6.378;2022-09-23T12:45:34;26.10;14.10
53776;DHT22;44276;49.534;6.378;2022-09-23T12:51:25;27.00;12.20
53776;DHT22;44276;49.534;6.378;2022-09-23T12:54:13;26.10;12.50
53776;DHT22;44276;49.534;6.378;2022-09-23T12:57:08;25.50;13.90
53776;DHT22;44276;49.534;6.378;2022-09-23T12:59:55;25.50;14.10
53776;DHT22;44276;49.534;6.378;2022-09-23T13:02:33;25.30;14.40
53776;DHT22;44276;49.534;6.378;2022-09-23T13:05:17;24.90;15.20
53776;DHT22;44276;49.534;6.378;2022-09-23T13:08:07;24.50;15.70
53776;DHT22;44276;49.534;6.378;2022-09-23T13:10:43;23.80;16.40
53776;DHT22;44276;49.534;6.378;2022-09-23T13:13:20;23.50;16.40
53776;DHT22;44276;49.534;6.378;2022-09-23T13:15:53;23.40;15.50
53776;DHT22;44276;49.534;6.378;2022-09-23T13:18:23;23.40;15.30
53776;DHT22;44276;49.534;6.378;2022-09-23T13:22:01;23.20;16.80
53776;DHT22;44276;49.534;6.378;2022-09-23T13:24:45;23.20;16.60
53776;DHT22;44276;49.534;6.378;2022-09-23T13:27:22;22.90;16.90
53776;DHT22;44276;49.534;6.378;2022-09-23T13:29:59;22.50;16.60
53776;DHT22;44276;49.534;6.378;2022-09-23T13:32:34;22.50;18.00
53776;DHT22;44276;49.534;6.378;2022-09-23T13:35:15;22.50;17.20
53776;DHT22;44276;49.534;6.378;2022-09-23T13:37:49;22.50;17.50
53776;DHT22;44276;49.534;6.378;2022-09-23T13:40:20;22.70;17.60
53776;DHT22;44276;49.534;6.378;2022-09-23T13:42:55;22.90;17.20
53776;DHT22;44276;49.534;6.378;2022-09-23T13:45:27;22.90;17.00
53776;DHT22;44276;49.534;6.378;2022-09-23T13:48:00;22.90;16.60
53776;DHT22;44276;49.534;6.378;2022-09-23T13:50:35;23.00;17.20
53776;DHT22;44276;49.534;6.378;2022-09-23T13:53:10;23.30;16.80
53776;DHT22;44276;49.534;6.378;2022-09-23T13:55:42;23.60;16.90
53776;DHT22;44276;49.534;6.378;2022-09-23T13:58:18;23.60;16.30
53776;DHT22;44276;49.534;6.378;2022-09-23T14:00:50;23.30;16.50
53776;DHT22;44276;49.534;6.378;2022-09-23T14:03:25;23.00;17.50
53776;DHT22;44276;49.534;6.378;2022-09-23T14:06:04;22.80;17.10
53776;DHT22;44276;49.534;6.378;2022-09-23T14:08:40;22.50;17.50
53776;DHT22;44276;49.534;6.378;2022-09-23T14:11:14;22.30;18.70
53776;DHT22;44276;49.534;6.378;2022-09-23T14:13:45;22.20;18.10
53776;DHT22;44276;49.534;6.378;2022-09-23T14:16:15;22.30;18.90
53776;DHT22;44276;49.534;6.378;2022-09-23T14:18:47;22.10;19.10
53776;DHT22;44276;49.534;6.378;2022-09-23T14:21:26;21.90;19.40
53776;DHT22;44276;49.534;6.378;2022-09-23T14:24:07;21.80;18.00
53776;DHT22;44276;49.534;6.378;2022-09-23T14:26:41;21.80;17.70
53776;DHT22;44276;49.534;6.378;2022-09-23T14:29:15;22.00;17.70
53776;DHT22;44276;49.534;6.378;2022-09-23T14:31:51;22.20;17.90
53776;DHT22;44276;49.534;6.378;2022-09-23T14:34:41;22.60;17.50
53776;DHT22;44276;49.534;6.378;2022-09-23T14:37:25;22.60;17.00
53776;DHT22;44276;49.534;6.378;2022-09-23T14:40:19;22.50;17.40
53776;DHT22;44276;49.534;6.378;2022-09-23T14:42:56;22.60;18.60
53776;DHT22;44276;49.534;6.378;2022-09-23T14:49:34;22.90;17.50
53776;DHT22;44276;49.534;6.378;2022-09-23T14:52:48;22.60;17.30
53776;DHT22;44276;49.534;6.378;2022-09-23T14:58:48;22.60;17.60
53776;DHT22;44276;49.534;6.378;2022-09-23T15:01:39;22.60;17.70
53776;DHT22;44276;49.534;6.378;2022-09-23T15:04:27;22.40;18.40
53776;DHT22;44276;49.534;6.378;2022-09-23T15:07:04;22.20;18.40
53776;DHT22;44276;49.534;6.378;2022-09-23T15:09:37;22.10;18.90
53776;DHT22;44276;49.534;6.378;2022-09-23T15:12:12;21.90;19.50
53776;DHT22;44276;49.534;6.378;2022-09-23T15:14:44;21.50;19.60
53776;DHT22;44276;49.534;6.378;2022-09-23T15:17:26;21.30;20.50
53776;DHT22;44276;49.534;6.378;2022-09-23T15:20:03;21.30;20.00
53776;DHT22;44276;49.534;6.378;2022-09-23T15:22:42;21.20;19.80
53776;DHT22;44276;49.534;6.378;2022-09-23T15:25:15;21.30;19.80
53776;DHT22;44276;49.534;6.378;2022-09-23T15:28:02;21.40;19.80
53776;DHT22;44276;49.534;6.378;2022-09-23T15:30:43;21.60;20.50
53776;DHT22;44276;49.534;6.378;2022-09-23T15:33:12;21.60;19.70
53776;DHT22;44276;49.534;6.378;2022-09-23T15:35:44;21.50;20.50
53776;DHT22;44276;49.534;6.378;2022-09-23T15:38:13;21.40;20.10
53776;DHT22;44276;49.534;6.378;2022-09-23T15:40:43;21.20;20.50
53776;DHT22;44276;49.534;6.378;2022-09-23T15:43:15;21.10;20.80
53776;DHT22;44276;49.534;6.378;2022-09-23T15:45:48;20.90;20.90
53776;DHT22;44276;49.534;6.378;2022-09-23T15:48:20;20.80;21.10
53776;DHT22;44276;49.534;6.378;2022-09-23T15:50:50;20.70;21.80
53776;DHT22;44276;49.534;6.378;2022-09-23T15:53:21;20.50;22.10
53776;DHT22;44276;49.534;6.378;2022-09-23T15:55:52;20.20;22.80
53776;DHT22;44276;49.534;6.378;2022-09-23T15:58:22;19.90;23.60
53776;DHT22;44276;49.534;6.378;2022-09-23T16:00:53;19.50;26.70
53776;DHT22;44276;49.534;6.378;2022-09-23T16:03:25;19.10;28.10
53776;DHT22;44276;49.534;6.378;2022-09-23T16:05:57;19.00;28.70
53776;DHT22;44276;49.534;6.378;2022-09-23T16:08:28;18.90;30.70
53776;DHT22;44276;49.534;6.378;2022-09-23T16:10:59;18.70;31.50
53776;DHT22;44276;49.534;6.378;2022-09-23T16:13:30;18.60;32.60
53776;DHT22;44276;49.534;6.378;2022-09-23T16:16:01;18.50;34.50
53776;DHT22;44276;49.534;6.378;2022-09-23T16:18:29;18.50;35.50
53776;DHT22;44276;49.534;6.378;2022-09-23T16:21:02;18.30;37.80
53776;DHT22;44276;49.534;6.378;2022-09-23T16:23:38;18.20;36.70
53776;DHT22;44276;49.534;6.378;2022-09-23T16:26:15;18.10;38.00
53776;DHT22;44276;49.534;6.378;2022-09-23T16:28:48;18.00;40.20
53776;DHT22;44276;49.534;6.378;2022-09-23T16:31:19;17.90;40.10
53776;DHT22;44276;49.534;6.378;2022-09-23T16:33:52;17.80;46.20
53776;DHT22;44276;49.534;6.378;2022-09-23T16:36:22;17.50;49.90
53776;DHT22;44276;49.534;6.378;2022-09-23T16:38:53;17.30;53.20
53776;DHT22;44276;49.534;6.378;2022-09-23T16:41:24;17.10;60.00
53776;DHT22;44276;49.534;6.378;2022-09-23T16:43:57;16.90;63.60
53776;DHT22;44276;49.534;6.378;2022-09-23T16:46:27;16.70;61.40